Uniontown, OH

5:17 AM EST on March 06, 2015 (GMT -0500)
Hidden Knolls | Change Station
CLOSE
Current Station
Personal Weather Station
Location: Uniontown, OH
Elevation: 1115 ft
Nearby Weather Stations

Elev 1115 ft 40.96 °N, 81.42 °W | Updated 6 minutes ago

Clear
Clear
-8.1 °F
Feels Like -8 °F
N
0.0
Wind Variable Wind from SW

Today
High -- | Low -- °F
--% Chance of Precip.
Yesterday
High -- | Low -- °F
Precip. -- in
6:52 AM 6:22 PM
Full, 100% visible
Pressure 30.56 in
Visibility 7.0 miles
Clouds Clear
Windchill -8 °F
Dew Point -11 °F
Humidity 88%
Rainfall in
Snow Depth Not available.
UV 0 out of 12
Pollen .50 out of 12
Air Quality Not available.
Flu Activity Not available.
METAR KCAK 060951Z 17004KT 7SM CLR M17/M19 A3048 RMK AO2 SLP348 T11671194

More Conditions Fewer Conditions

Pressure 30.56 in
Visibility 7.0 miles
Clouds Clear
Windchill -8 °F
Dew Point -11 °F
Humidity 88%
Rainfall in
Snow Depth Not available.
UV 0 out of 12
Pollen .50 out of 12
Air Quality Not available.
Flu Activity Not available.
METAR KCAK 060951Z 17004KT 7SM CLR M17/M19 A3048 RMK AO2 SLP348 T11671194

More Conditions Fewer Conditions

10-Day Weather Forecast

Almanac

Astronomy

Mar. 06, 2015 Rise Set
Actual Time
Civil Twilight
Nautical Twilight
Astronomical Twilight
Moon
Length of Visible Light
Length of Day
Tomorrow will be .
, % of the Moon is Illuminated

Today's Extremes

State Highs State Lows

Community

WunderPhotos

Upload Photos

1,803,216 photos uploaded!

WunderBlogs® & News

Nearby

Air Quality

  Air Quality AQ Index Pollutant
Not available.

Snow Depth

Station Depth Elevation

Earthquake Activity

City Distance Mag. Time & Date
Minimum magnitude displayed is 2.5.

Coastal Water Temperatures

Place Temperature

Nearby Weather Stations